createdAt,value
2022-12-05T05:00:26.692Z,35.07
2022-12-05T05:03:01.274Z,31.07
2022-12-05T05:05:33.094Z,31.27
2022-12-05T05:08:05.108Z,29.77
2022-12-05T05:10:39.615Z,33.73
2022-12-05T05:13:11.268Z,30.47
2022-12-05T05:15:44.370Z,31.30
2022-12-05T05:18:16.108Z,35.00
2022-12-05T05:20:47.746Z,35.67
2022-12-05T05:23:19.400Z,34.20
2022-12-05T05:25:54.380Z,30.53
2022-12-05T05:28:26.040Z,30.83
2022-12-05T05:31:03.156Z,37.97
2022-12-05T05:33:34.882Z,34.27
2022-12-05T05:36:07.999Z,28.70
2022-12-05T05:38:40.610Z,34.23
2022-12-05T05:41:12.848Z,33.83
2022-12-05T05:43:44.666Z,35.23
2022-12-05T05:46:18.313Z,30.27
2022-12-05T05:48:50.042Z,31.00
2022-12-05T05:51:21.759Z,31.10
2022-12-05T05:53:53.513Z,31.83
2022-12-05T05:56:25.202Z,31.47
2022-12-05T05:58:57.704Z,33.50
2022-12-05T06:01:31.246Z,34.27
2022-12-05T06:04:03.176Z,29.47
2022-12-05T06:06:34.900Z,32.47
2022-12-05T06:09:06.718Z,32.10
2022-12-05T06:11:38.369Z,35.17
2022-12-05T06:14:10.035Z,38.53
2022-12-05T06:16:43.135Z,32.90
2022-12-05T06:19:14.908Z,34.80
2022-12-05T06:21:48.890Z,33.03
2022-12-05T06:24:20.872Z,32.40
2022-12-05T06:26:52.539Z,35.03
2022-12-05T06:29:26.249Z,36.80
2022-12-05T06:32:01.282Z,35.10
2022-12-05T06:34:33.035Z,36.50
2022-12-05T06:37:04.683Z,38.37
2022-12-05T06:39:36.360Z,33.70
2022-12-05T06:42:08.020Z,35.87
2022-12-05T06:44:39.680Z,37.50
2022-12-05T06:47:12.688Z,30.40
2022-12-05T06:49:44.345Z,35.73
2022-12-05T06:52:15.988Z,35.73
2022-12-05T06:54:47.706Z,34.90
2022-12-05T06:57:19.336Z,35.40
2022-12-05T06:59:51.035Z,35.80
2022-12-05T07:02:24.058Z,45.03
2022-12-05T07:04:55.903Z,36.00
2022-12-05T07:07:29.186Z,35.53
2022-12-05T07:10:01.030Z,44.17
2022-12-05T07:12:33.179Z,32.57
2022-12-05T07:15:05.560Z,40.90
2022-12-05T07:17:38.657Z,35.67
2022-12-05T07:20:11.019Z,32.20
2022-12-05T07:22:42.693Z,35.33
2022-12-05T07:25:14.399Z,35.57
2022-12-05T07:27:46.032Z,34.77
2022-12-05T07:30:17.696Z,42.30
2022-12-05T07:32:50.698Z,39.87
2022-12-05T07:35:22.347Z,35.23
2022-12-05T07:37:53.979Z,39.77
2022-12-05T07:40:25.661Z,37.00
2022-12-05T07:42:57.296Z,36.17
2022-12-05T07:45:28.957Z,40.53
2022-12-05T07:48:01.967Z,37.70
2022-12-05T07:50:33.735Z,39.70
2022-12-05T07:53:05.369Z,33.77
2022-12-05T07:55:37.826Z,37.37
2022-12-05T07:58:09.463Z,35.13
2022-12-05T08:00:41.098Z,36.50
2022-12-05T08:03:14.122Z,34.40
2022-12-05T08:05:45.766Z,37.23
2022-12-05T08:08:17.510Z,33.10
2022-12-05T08:10:49.252Z,32.80
2022-12-05T08:13:20.879Z,39.47
2022-12-05T08:15:52.544Z,33.67
2022-12-05T08:18:27.500Z,37.27
2022-12-05T08:21:02.431Z,39.17
2022-12-05T08:23:34.352Z,37.93
2022-12-05T08:26:06.894Z,29.57
2022-12-05T08:28:38.697Z,34.27
2022-12-05T08:31:11.279Z,29.77
2022-12-05T08:33:44.398Z,32.63
2022-12-05T08:36:16.183Z,29.93
2022-12-05T08:38:47.862Z,31.73
2022-12-05T08:41:19.519Z,29.47
2022-12-05T08:43:51.212Z,28.30
2022-12-05T08:46:22.992Z,27.20
2022-12-05T08:48:56.093Z,32.17
2022-12-05T08:51:27.738Z,29.20
2022-12-05T08:53:59.464Z,28.50
2022-12-05T08:56:31.142Z,32.97
2022-12-05T08:59:05.650Z,33.17
2022-12-05T09:01:37.955Z,35.10
2022-12-05T09:04:11.178Z,34.93
2022-12-05T09:06:42.827Z,32.37
2022-12-05T09:09:14.494Z,35.43
2022-12-05T09:11:46.216Z,36.03
2022-12-05T09:14:18.306Z,31.53
2022-12-05T09:16:49.951Z,35.23
2022-12-05T09:19:22.957Z,34.47
2022-12-05T09:21:54.845Z,30.70
2022-12-05T09:24:26.666Z,31.77
2022-12-05T09:26:58.323Z,35.13
2022-12-05T09:29:29.979Z,34.40
2022-12-05T09:32:01.612Z,35.90
2022-12-05T09:34:34.635Z,34.33
2022-12-05T09:37:30.875Z,32.87
2022-12-05T09:39:58.165Z,27.43
2022-12-05T09:42:40.902Z,29.07
2022-12-05T09:45:15.551Z,31.67
2022-12-05T09:47:51.598Z,30.00
2022-12-05T09:50:25.245Z,27.10
2022-12-05T09:53:09.843Z,27.27
2022-12-05T09:55:45.832Z,27.67
2022-12-05T09:58:25.852Z,27.63
2022-12-05T10:01:02.992Z,27.23
2022-12-05T10:03:39.106Z,27.20
2022-12-05T10:06:17.467Z,24.17
2022-12-05T10:09:11.835Z,27.57
2022-12-05T10:11:45.226Z,24.60
2022-12-05T10:14:20.538Z,25.23
2022-12-05T10:16:54.103Z,24.53
2022-12-05T10:19:28.624Z,23.77
2022-12-05T10:22:02.714Z,24.53
2022-12-05T10:24:37.179Z,29.30
2022-12-05T10:27:11.539Z,25.93
2022-12-05T10:29:44.157Z,27.70
2022-12-05T10:32:16.494Z,26.83
2022-12-05T10:34:48.166Z,24.07
2022-12-05T10:37:21.852Z,22.43
2022-12-05T10:39:53.520Z,22.07
2022-12-05T10:42:28.384Z,22.10
2022-12-05T10:45:02.047Z,25.83
2022-12-05T10:47:33.903Z,23.37
2022-12-05T10:50:07.824Z,21.07
2022-12-05T10:52:40.818Z,24.03
2022-12-05T10:55:14.465Z,23.73
2022-12-05T10:57:49.979Z,24.97
2022-12-05T11:00:23.211Z,23.67
2022-12-05T11:02:55.261Z,23.33
2022-12-05T11:05:28.835Z,27.03
2022-12-05T11:08:01.853Z,21.97
2022-12-05T11:10:34.467Z,24.13
2022-12-05T11:13:14.475Z,23.70
2022-12-05T11:15:53.694Z,23.07
2022-12-05T11:18:28.759Z,27.33
2022-12-05T11:21:11.033Z,25.23
2022-12-05T11:23:44.020Z,25.23
2022-12-05T11:26:20.154Z,28.57
2022-12-05T11:28:51.808Z,25.53
2022-12-05T11:31:27.088Z,25.27
2022-12-05T11:34:02.335Z,26.07
2022-12-05T11:36:37.942Z,21.40
2022-12-05T11:39:11.885Z,22.30
2022-12-05T11:42:07.197Z,24.57
2022-12-05T11:44:55.994Z,20.97
2022-12-05T11:47:37.958Z,23.77
2022-12-05T11:50:17.350Z,21.53
2022-12-05T11:52:54.810Z,23.03
2022-12-05T11:55:29.435Z,21.40
2022-12-05T11:58:12.278Z,25.37
2022-12-05T12:00:48.992Z,22.47
2022-12-05T12:03:33.080Z,26.77
2022-12-05T12:06:15.875Z,20.93
2022-12-05T12:08:54.316Z,23.93
2022-12-05T12:11:29.536Z,22.13
2022-12-05T12:14:03.800Z,21.20
2022-12-05T12:16:37.667Z,17.73
2022-12-05T12:19:30.488Z,20.23
2022-12-05T12:22:12.551Z,17.30
2022-12-05T12:24:58.014Z,17.33
2022-12-05T12:27:39.120Z,21.73
2022-12-05T12:30:12.416Z,17.47
2022-12-05T12:32:47.315Z,16.37
2022-12-05T12:35:38.100Z,23.33
2022-12-05T12:38:21.692Z,18.70
2022-12-05T12:40:53.828Z,22.30
2022-12-05T12:43:55.107Z,18.33
2022-12-05T12:46:34.048Z,20.67
2022-12-05T12:49:18.156Z,22.03
2022-12-05T12:51:52.214Z,36.70
2022-12-05T12:55:03.361Z,29.63
2022-12-05T12:57:51.032Z,21.30
2022-12-05T13:00:29.865Z,21.53
2022-12-05T13:03:03.670Z,21.80
2022-12-05T13:05:38.304Z,24.43
2022-12-05T13:08:12.341Z,20.93
2022-12-05T13:10:44.716Z,18.70
2022-12-05T13:13:18.257Z,18.77
2022-12-05T13:15:52.673Z,16.30
2022-12-05T13:18:24.988Z,16.33
2022-12-05T13:20:58.107Z,19.67
2022-12-05T13:23:30.783Z,16.70
2022-12-05T13:26:07.199Z,19.23
2022-12-05T13:28:39.478Z,21.37
2022-12-05T13:31:12.561Z,19.07
2022-12-05T13:33:45.332Z,19.47
2022-12-05T13:36:17.867Z,19.00
2022-12-05T13:38:49.522Z,20.60
2022-12-05T13:41:21.206Z,20.87
2022-12-05T13:44:05.404Z,18.80
2022-12-05T13:46:40.062Z,18.20
2022-12-05T13:49:17.317Z,21.23
2022-12-05T13:51:49.248Z,20.77
2022-12-05T13:54:22.358Z,20.93
2022-12-05T13:56:55.347Z,21.20
2022-12-05T13:59:59.521Z,21.10
2022-12-05T14:02:49.477Z,21.17
2022-12-05T14:05:47.145Z,23.17
2022-12-05T14:09:03.675Z,21.13
2022-12-05T14:11:35.341Z,21.97
2022-12-05T14:14:07.748Z,20.53
2022-12-05T14:16:43.446Z,24.70
2022-12-05T14:19:53.700Z,24.87
2022-12-05T14:22:40.359Z,26.97
2022-12-05T14:25:19.666Z,26.03
2022-12-05T14:27:54.132Z,31.97
2022-12-05T14:30:28.834Z,28.63
2022-12-05T14:33:00.831Z,31.87
2022-12-05T14:35:42.632Z,30.23
2022-12-05T14:38:20.469Z,26.67
2022-12-05T14:40:52.094Z,30.37
2022-12-05T14:43:27.796Z,23.40
2022-12-05T14:46:00.919Z,29.23
2022-12-05T14:48:33.493Z,21.67
2022-12-05T14:51:45.088Z,23.90
2022-12-05T14:54:17.058Z,22.53
2022-12-05T14:56:50.476Z,25.13
2022-12-05T14:59:25.036Z,23.00
2022-12-05T15:01:57.664Z,22.53
2022-12-05T15:04:32.434Z,22.00
2022-12-05T15:07:08.276Z,21.67
2022-12-05T15:09:54.779Z,21.80
2022-12-05T15:12:27.114Z,21.13
2022-12-05T15:15:06.214Z,21.80
2022-12-05T15:17:39.031Z,22.13
2022-12-05T15:20:17.276Z,22.43
2022-12-05T15:22:50.288Z,42.17
2022-12-05T15:25:27.183Z,27.13
2022-12-05T15:28:03.982Z,21.10
2022-12-05T15:30:36.415Z,20.77
2022-12-05T15:33:11.691Z,20.73
2022-12-05T15:35:43.315Z,21.90
2022-12-05T15:38:23.833Z,20.93
2022-12-05T15:40:58.565Z,21.17
2022-12-05T15:43:31.305Z,19.30
2022-12-05T15:46:21.864Z,25.87
2022-12-05T15:48:54.108Z,23.87
2022-12-05T15:51:28.693Z,24.50
2022-12-05T15:54:05.340Z,25.37
2022-12-05T15:56:38.464Z,23.00
2022-12-05T15:59:12.818Z,21.03
2022-12-05T16:01:45.488Z,25.23
2022-12-05T16:04:18.624Z,22.30
2022-12-05T16:06:51.166Z,26.07
2022-12-05T16:09:28.707Z,23.80
2022-12-05T16:12:02.428Z,21.77
2022-12-05T16:17:27.072Z,24.60
2022-12-05T16:20:10.942Z,24.55
2022-12-05T16:22:43.926Z,21.33
2022-12-05T16:25:18.119Z,21.13
2022-12-05T16:27:57.352Z,23.73
2022-12-05T16:30:29.458Z,20.60
2022-12-05T16:33:03.447Z,21.60
2022-12-05T16:35:36.666Z,19.83
2022-12-05T16:38:13.331Z,19.67
2022-12-05T16:40:54.010Z,22.50
2022-12-05T16:43:28.828Z,18.93
2022-12-05T16:46:30.097Z,18.70
2022-12-05T16:49:16.234Z,20.90
2022-12-05T16:51:54.252Z,21.17
2022-12-05T16:54:25.906Z,21.63
2022-12-05T16:56:58.894Z,23.03
2022-12-05T16:59:32.150Z,23.23
2022-12-05T17:02:04.968Z,23.50
2022-12-05T17:04:36.729Z,22.57
2022-12-05T17:07:08.413Z,22.63
2022-12-05T17:09:40.076Z,22.93
2022-12-05T17:12:18.169Z,26.90
2022-12-05T17:14:57.354Z,24.43
2022-12-05T17:17:29.205Z,25.13
2022-12-05T17:20:00.876Z,28.73
2022-12-05T17:22:32.495Z,23.70
2022-12-05T17:25:05.131Z,22.40
2022-12-05T17:27:38.173Z,23.47
2022-12-05T17:30:10.328Z,24.33
2022-12-05T17:32:41.967Z,22.63
2022-12-05T17:35:14.997Z,21.63
2022-12-05T17:37:46.672Z,22.13
2022-12-05T17:40:18.474Z,22.47
2022-12-05T17:42:51.457Z,24.07
2022-12-05T17:45:23.115Z,23.80
2022-12-05T17:47:54.801Z,22.90
2022-12-05T17:50:26.571Z,22.63
2022-12-05T17:53:00.568Z,22.63
2022-12-05T17:55:35.959Z,22.17
2022-12-05T17:58:09.025Z,21.43
2022-12-05T18:00:40.788Z,20.77
2022-12-05T18:03:12.949Z,18.00
2022-12-05T18:05:44.926Z,20.33
2022-12-05T18:08:16.969Z,19.57
2022-12-05T18:10:48.806Z,19.47
2022-12-05T18:13:21.764Z,17.50
2022-12-05T18:15:56.000Z,20.83
2022-12-05T18:18:27.696Z,19.40
2022-12-05T18:21:06.586Z,17.40
2022-12-05T18:23:38.439Z,17.47
2022-12-05T18:26:10.279Z,16.87
2022-12-05T18:28:43.268Z,18.97
2022-12-05T18:31:15.807Z,16.10
2022-12-05T18:33:47.558Z,15.77
2022-12-05T18:36:21.404Z,19.73
2022-12-05T18:38:53.745Z,17.97
2022-12-05T18:41:25.556Z,16.37
2022-12-05T18:43:58.558Z,15.60
2022-12-05T18:46:30.316Z,15.47
2022-12-05T18:49:03.723Z,15.90
2022-12-05T18:51:35.447Z,18.47
2022-12-05T18:54:07.080Z,17.57
2022-12-05T18:56:38.759Z,15.90
2022-12-05T18:59:13.992Z,15.27
2022-12-05T19:01:45.735Z,17.03
2022-12-05T19:04:18.456Z,14.87
2022-12-05T19:06:51.082Z,13.60
2022-12-05T19:09:23.519Z,17.33
2022-12-05T19:11:55.630Z,18.93
2022-12-05T19:14:29.041Z,15.03
2022-12-05T19:17:00.844Z,15.73
2022-12-05T19:19:32.580Z,13.83
2022-12-05T19:22:04.226Z,12.77
2022-12-05T19:24:35.872Z,12.83
2022-12-05T19:27:07.526Z,13.03
2022-12-05T19:29:40.654Z,15.10
2022-12-05T19:32:14.761Z,15.10
2022-12-05T19:34:46.460Z,16.43
2022-12-05T19:37:18.102Z,13.90
2022-12-05T19:39:49.739Z,17.33
2022-12-05T19:42:21.475Z,14.93
2022-12-05T19:44:54.494Z,15.07
2022-12-05T19:47:26.154Z,17.57
2022-12-05T19:49:57.912Z,14.87
2022-12-05T19:52:29.759Z,18.77
2022-12-05T19:55:01.382Z,17.07
2022-12-05T19:57:33.042Z,14.53
2022-12-05T20:00:07.702Z,14.50
2022-12-05T20:02:40.437Z,14.30
2022-12-05T20:05:12.262Z,17.03
2022-12-05T20:07:43.929Z,17.57
2022-12-05T20:10:15.624Z,14.40
2022-12-05T20:12:47.275Z,14.53
2022-12-05T20:15:20.265Z,15.13
2022-12-05T20:17:53.397Z,20.33
2022-12-05T20:20:25.183Z,16.00
2022-12-05T20:22:56.835Z,15.13
2022-12-05T20:25:28.470Z,18.33
2022-12-05T20:28:00.125Z,15.90
2022-12-05T20:30:33.235Z,14.03
2022-12-05T20:33:04.920Z,16.90
2022-12-05T20:35:36.587Z,15.67
2022-12-05T20:38:08.248Z,15.43
2022-12-05T20:40:39.895Z,15.17
2022-12-05T20:43:11.580Z,15.27
2022-12-05T20:45:44.592Z,13.73
2022-12-05T20:48:16.276Z,14.17
2022-12-05T20:50:47.921Z,15.20
2022-12-05T20:53:19.620Z,16.60
2022-12-05T20:55:51.255Z,16.13
2022-12-05T20:58:22.951Z,16.93
2022-12-05T21:00:58.707Z,18.93
2022-12-05T21:03:30.490Z,18.77
2022-12-05T21:06:07.095Z,21.23
2022-12-05T21:08:38.780Z,19.27
2022-12-05T21:11:10.930Z,17.73
2022-12-05T21:13:42.580Z,19.07
2022-12-05T21:16:16.449Z,19.80
2022-12-05T21:18:48.338Z,21.67
2022-12-05T21:21:20.794Z,19.80
2022-12-05T21:23:53.154Z,18.47
2022-12-05T21:26:25.475Z,20.03
2022-12-05T21:28:57.336Z,18.67
2022-12-05T21:31:31.247Z,22.27
2022-12-05T21:34:04.402Z,17.60
2022-12-05T21:36:36.203Z,18.07
2022-12-05T21:39:07.866Z,18.17
2022-12-05T21:41:39.505Z,16.50
2022-12-05T21:44:11.145Z,16.93
2022-12-05T21:46:44.238Z,24.20
2022-12-05T21:49:15.896Z,21.33
2022-12-05T21:51:47.564Z,19.20
2022-12-05T21:54:19.189Z,18.33
2022-12-05T21:56:50.862Z,18.30
2022-12-05T21:59:22.589Z,22.07
2022-12-05T22:01:55.684Z,18.40
2022-12-05T22:04:27.366Z,18.10
2022-12-05T22:06:59.028Z,19.00
2022-12-05T22:09:30.711Z,20.30
2022-12-05T22:12:02.503Z,19.33
2022-12-05T22:14:34.209Z,22.13
2022-12-05T22:17:07.224Z,20.97
2022-12-05T22:19:38.830Z,20.87
2022-12-05T22:22:10.493Z,22.50
2022-12-05T22:24:42.137Z,18.43
2022-12-05T22:27:13.803Z,22.60
2022-12-05T22:29:49.940Z,19.53
2022-12-05T22:32:25.679Z,19.10
2022-12-05T22:35:03.345Z,21.20
2022-12-05T22:37:35.575Z,23.50
2022-12-05T22:40:08.178Z,21.33
2022-12-05T22:42:39.836Z,22.10
2022-12-05T22:45:11.460Z,22.50
2022-12-05T22:47:44.581Z,20.43
2022-12-05T22:50:16.556Z,22.80
2022-12-05T22:52:48.246Z,21.87
2022-12-05T22:55:19.855Z,20.70
2022-12-05T22:57:51.498Z,23.00
